Terminal Aerodrome Forecast
Issued by NWS Binghamton, NY

Home | Current Version | Previous Version | Text Only | Print | Product List | Glossary On
Versions: 1 2 3 4 5 6 7 8 9 10 11 12 13
145
FTUS41 KBGM 230520
TAFSYR
TAF
KSYR 230520Z 2306/2406 VRB03KT P6SM SKC
     FM231600 18007KT P6SM SKC
     FM240300 15006KT P6SM FEW250=

USA.gov is the U.S. government's official web portal to all federal, state and local government web resources and services.